Steele, Missouri
Current Conditions -  °F | °C
As of 6:53 AM on Thursday 18 Dec 2014 (Local Time) from KHKA Reporting Station
Light Rain Light Rain  
Wind Chill: 32°   Ceiling: 5000
Heat Index: 37°   Visibility: 6mi
Dew Point: 35°   Wind: 7mph
Humidity: 93%   Direction: 60°ENE
Pressure: 30.25"   Gusts: NA
Location:  36.08°N, 89.83°W
Report Text: KHKA 181253Z AUTO 06006KT 6SM -RA BR FEW007 OVC050 03/02 A3025 RMK AO2 UPB30E33RAB33 SLP246 P0000 T00280017
Loading
Personal Weather Stations






























Interactive Weather Map New forecast layout! Learn more

10-Day Weather Forecast

Advertisements
Track Severe Weather on mobile